<?xml version="1.0" encoding="UTF-8" standalone="no" ?>
<gpx xmlns="http://www.topografix.com/GPX/1/1" xmlns:xsi="http://www.w3.org/2001/XMLSchema-instance" xsi:schemaLocation="http://www.topografix.com/GPX/1/1 http://www.topografix.com/GPX/1/1/gpx.xsd" version="1.1" creator="VisuGPX - https://www.visugpx.com">
  <metadata>
    <name>1 Salles-la-Source</name>
  </metadata>
  <wpt lat="44.43633" lon="2.51425">
    <ele>416.4</ele>
  </wpt>
  <trk>
    <name><![CDATA[9926075-Salles-la-Source - Les Corniches du Créneau]]></name>
    <extensions>
      <line xmlns="http://www.topografix.com/GPX/gpx_style/0/2">
        <color>ff0000</color>
        <width>4</width>
      </line>
    </extensions>
    <trkseg>
      <trkpt lat="44.43628" lon="2.51408">
        <ele>413</ele>
        <time>2019-05-07T19:09:35Z</time>
      </trkpt>
      <trkpt lat="44.43636" lon="2.51435">
        <ele>419</ele>
        <time>2019-05-07T19:10:35Z</time>
      </trkpt>
      <trkpt lat="44.43623" lon="2.51448">
        <ele>421</ele>
        <time>2019-05-07T19:11:35Z</time>
      </trkpt>
      <trkpt lat="44.43587" lon="2.51463">
        <ele>420</ele>
        <time>2019-05-07T19:12:35Z</time>
      </trkpt>
      <trkpt lat="44.43603" lon="2.51478">
        <ele>424</ele>
        <time>2019-05-07T19:13:35Z</time>
      </trkpt>
      <trkpt lat="44.4363" lon="2.51478">
        <ele>428</ele>
        <time>2019-05-07T19:14:35Z</time>
      </trkpt>
      <trkpt lat="44.43672" lon="2.51476">
        <ele>433</ele>
        <time>2019-05-07T19:15:35Z</time>
      </trkpt>
      <trkpt lat="44.43694" lon="2.51459">
        <ele>433</ele>
        <time>2019-05-07T19:16:35Z</time>
      </trkpt>
      <trkpt lat="44.43715" lon="2.51424">
        <ele>429</ele>
        <time>2019-05-07T19:17:35Z</time>
      </trkpt>
      <trkpt lat="44.43744" lon="2.51381">
        <ele>429</ele>
        <time>2019-05-07T19:18:35Z</time>
      </trkpt>
      <trkpt lat="44.4377" lon="2.51353">
        <ele>434</ele>
        <time>2019-05-07T19:19:35Z</time>
      </trkpt>
      <trkpt lat="44.43802" lon="2.51332">
        <ele>444</ele>
        <time>2019-05-07T19:20:35Z</time>
      </trkpt>
      <trkpt lat="44.43813" lon="2.51288">
        <ele>442</ele>
        <time>2019-05-07T19:21:35Z</time>
      </trkpt>
      <trkpt lat="44.43826" lon="2.51218">
        <ele>439</ele>
        <time>2019-05-07T19:22:35Z</time>
      </trkpt>
      <trkpt lat="44.43834" lon="2.51199">
        <ele>440</ele>
        <time>2019-05-07T19:23:35Z</time>
      </trkpt>
      <trkpt lat="44.43825" lon="2.51175">
        <ele>434</ele>
        <time>2019-05-07T19:24:35Z</time>
      </trkpt>
      <trkpt lat="44.43831" lon="2.51132">
        <ele>434</ele>
        <time>2019-05-07T19:25:35Z</time>
      </trkpt>
      <trkpt lat="44.43841" lon="2.51107">
        <ele>438</ele>
        <time>2019-05-07T19:26:35Z</time>
      </trkpt>
      <trkpt lat="44.4385" lon="2.51089">
        <ele>442</ele>
        <time>2019-05-07T19:27:35Z</time>
      </trkpt>
      <trkpt lat="44.43846" lon="2.51076">
        <ele>440</ele>
        <time>2019-05-07T19:28:35Z</time>
      </trkpt>
      <trkpt lat="44.43838" lon="2.51049">
        <ele>435</ele>
        <time>2019-05-07T19:29:35Z</time>
      </trkpt>
      <trkpt lat="44.43841" lon="2.51036">
        <ele>435</ele>
        <time>2019-05-07T19:30:35Z</time>
      </trkpt>
      <trkpt lat="44.43859" lon="2.51024">
        <ele>444</ele>
        <time>2019-05-07T19:31:35Z</time>
      </trkpt>
      <trkpt lat="44.43867" lon="2.5101">
        <ele>447</ele>
        <time>2019-05-07T19:32:35Z</time>
      </trkpt>
      <trkpt lat="44.43862" lon="2.5099">
        <ele>443</ele>
        <time>2019-05-07T19:33:35Z</time>
      </trkpt>
      <trkpt lat="44.43853" lon="2.50969">
        <ele>436</ele>
        <time>2019-05-07T19:34:35Z</time>
      </trkpt>
      <trkpt lat="44.43862" lon="2.50935">
        <ele>437</ele>
        <time>2019-05-07T19:35:35Z</time>
      </trkpt>
      <trkpt lat="44.43876" lon="2.5089">
        <ele>438</ele>
        <time>2019-05-07T19:36:35Z</time>
      </trkpt>
      <trkpt lat="44.43908" lon="2.50801">
        <ele>440</ele>
        <time>2019-05-07T19:37:35Z</time>
      </trkpt>
      <trkpt lat="44.43913" lon="2.50703">
        <ele>431</ele>
        <time>2019-05-07T19:38:35Z</time>
      </trkpt>
      <trkpt lat="44.43914" lon="2.50661">
        <ele>427</ele>
        <time>2019-05-07T19:39:35Z</time>
      </trkpt>
      <trkpt lat="44.43941" lon="2.50601">
        <ele>431</ele>
        <time>2019-05-07T19:40:35Z</time>
      </trkpt>
      <trkpt lat="44.4395" lon="2.50544">
        <ele>424</ele>
        <time>2019-05-07T19:41:35Z</time>
      </trkpt>
      <trkpt lat="44.43983" lon="2.5048">
        <ele>424</ele>
        <time>2019-05-07T19:42:35Z</time>
      </trkpt>
      <trkpt lat="44.4401" lon="2.50433">
        <ele>422</ele>
        <time>2019-05-07T19:43:35Z</time>
      </trkpt>
      <trkpt lat="44.44059" lon="2.5042">
        <ele>427</ele>
        <time>2019-05-07T19:44:35Z</time>
      </trkpt>
      <trkpt lat="44.4409" lon="2.50416">
        <ele>430</ele>
        <time>2019-05-07T19:45:35Z</time>
      </trkpt>
      <trkpt lat="44.44114" lon="2.50424">
        <ele>431</ele>
        <time>2019-05-07T19:46:35Z</time>
      </trkpt>
      <trkpt lat="44.44146" lon="2.5044">
        <ele>433</ele>
        <time>2019-05-07T19:47:35Z</time>
      </trkpt>
      <trkpt lat="44.44169" lon="2.50463">
        <ele>437</ele>
        <time>2019-05-07T19:48:35Z</time>
      </trkpt>
      <trkpt lat="44.44203" lon="2.50496">
        <ele>440</ele>
        <time>2019-05-07T19:49:35Z</time>
      </trkpt>
      <trkpt lat="44.44231" lon="2.5052">
        <ele>440</ele>
        <time>2019-05-07T19:50:35Z</time>
      </trkpt>
      <trkpt lat="44.44267" lon="2.50533">
        <ele>437</ele>
        <time>2019-05-07T19:51:35Z</time>
      </trkpt>
      <trkpt lat="44.44299" lon="2.50551">
        <ele>437</ele>
        <time>2019-05-07T19:52:35Z</time>
      </trkpt>
      <trkpt lat="44.4433" lon="2.50563">
        <ele>435</ele>
        <time>2019-05-07T19:53:35Z</time>
      </trkpt>
      <trkpt lat="44.44351" lon="2.50566">
        <ele>436</ele>
        <time>2019-05-07T19:54:35Z</time>
      </trkpt>
      <trkpt lat="44.44365" lon="2.50552">
        <ele>437</ele>
        <time>2019-05-07T19:55:35Z</time>
      </trkpt>
      <trkpt lat="44.44368" lon="2.50523">
        <ele>437</ele>
        <time>2019-05-07T19:56:35Z</time>
      </trkpt>
      <trkpt lat="44.44366" lon="2.50479">
        <ele>435</ele>
        <time>2019-05-07T19:57:35Z</time>
      </trkpt>
      <trkpt lat="44.44366" lon="2.5045">
        <ele>434</ele>
        <time>2019-05-07T19:58:35Z</time>
      </trkpt>
      <trkpt lat="44.44368" lon="2.50416">
        <ele>434</ele>
        <time>2019-05-07T19:59:35Z</time>
      </trkpt>
      <trkpt lat="44.44366" lon="2.50343">
        <ele>433</ele>
        <time>2019-05-07T20:00:35Z</time>
      </trkpt>
      <trkpt lat="44.44374" lon="2.50306">
        <ele>436</ele>
        <time>2019-05-07T20:01:35Z</time>
      </trkpt>
      <trkpt lat="44.4438" lon="2.50273">
        <ele>438</ele>
        <time>2019-05-07T20:02:35Z</time>
      </trkpt>
      <trkpt lat="44.44384" lon="2.50242">
        <ele>439</ele>
        <time>2019-05-07T20:03:35Z</time>
      </trkpt>
      <trkpt lat="44.44382" lon="2.50217">
        <ele>438</ele>
        <time>2019-05-07T20:04:35Z</time>
      </trkpt>
      <trkpt lat="44.44409" lon="2.5019">
        <ele>447</ele>
        <time>2019-05-07T20:05:35Z</time>
      </trkpt>
      <trkpt lat="44.44415" lon="2.50156">
        <ele>447</ele>
        <time>2019-05-07T20:06:35Z</time>
      </trkpt>
      <trkpt lat="44.4442" lon="2.50106">
        <ele>441</ele>
        <time>2019-05-07T20:07:35Z</time>
      </trkpt>
      <trkpt lat="44.44435" lon="2.5008">
        <ele>441</ele>
        <time>2019-05-07T20:08:35Z</time>
      </trkpt>
      <trkpt lat="44.4449" lon="2.5002">
        <ele>445</ele>
        <time>2019-05-07T20:09:35Z</time>
      </trkpt>
      <trkpt lat="44.44518" lon="2.50011">
        <ele>449</ele>
        <time>2019-05-07T20:10:35Z</time>
      </trkpt>
      <trkpt lat="44.44561" lon="2.49965">
        <ele>444</ele>
        <time>2019-05-07T20:11:35Z</time>
      </trkpt>
      <trkpt lat="44.44589" lon="2.49968">
        <ele>447</ele>
        <time>2019-05-07T20:12:35Z</time>
      </trkpt>
      <trkpt lat="44.44641" lon="2.50037">
        <ele>452</ele>
        <time>2019-05-07T20:13:35Z</time>
      </trkpt>
      <trkpt lat="44.44703" lon="2.50063">
        <ele>445</ele>
        <time>2019-05-07T20:14:35Z</time>
      </trkpt>
      <trkpt lat="44.44741" lon="2.50084">
        <ele>442</ele>
        <time>2019-05-07T20:15:35Z</time>
      </trkpt>
      <trkpt lat="44.44797" lon="2.50131">
        <ele>438</ele>
        <time>2019-05-07T20:16:35Z</time>
      </trkpt>
      <trkpt lat="44.44851" lon="2.50174">
        <ele>438</ele>
        <time>2019-05-07T20:17:35Z</time>
      </trkpt>
      <trkpt lat="44.44929" lon="2.50191">
        <ele>444</ele>
        <time>2019-05-07T20:18:35Z</time>
      </trkpt>
      <trkpt lat="44.44972" lon="2.50202">
        <ele>454</ele>
        <time>2019-05-07T20:19:35Z</time>
      </trkpt>
      <trkpt lat="44.44991" lon="2.50175">
        <ele>454</ele>
        <time>2019-05-07T20:20:35Z</time>
      </trkpt>
      <trkpt lat="44.44992" lon="2.50151">
        <ele>453</ele>
        <time>2019-05-07T20:21:35Z</time>
      </trkpt>
      <trkpt lat="44.45003" lon="2.50088">
        <ele>453</ele>
        <time>2019-05-07T20:22:35Z</time>
      </trkpt>
      <trkpt lat="44.45018" lon="2.50086">
        <ele>460</ele>
        <time>2019-05-07T20:23:35Z</time>
      </trkpt>
      <trkpt lat="44.45023" lon="2.5006">
        <ele>462</ele>
        <time>2019-05-07T20:24:35Z</time>
      </trkpt>
      <trkpt lat="44.45027" lon="2.50045">
        <ele>464</ele>
        <time>2019-05-07T20:25:35Z</time>
      </trkpt>
      <trkpt lat="44.45036" lon="2.50044">
        <ele>469</ele>
        <time>2019-05-07T20:26:35Z</time>
      </trkpt>
      <trkpt lat="44.45038" lon="2.50033">
        <ele>470</ele>
        <time>2019-05-07T20:27:35Z</time>
      </trkpt>
      <trkpt lat="44.45057" lon="2.50077">
        <ele>477</ele>
        <time>2019-05-07T20:28:35Z</time>
      </trkpt>
      <trkpt lat="44.45078" lon="2.50077">
        <ele>486</ele>
        <time>2019-05-07T20:29:35Z</time>
      </trkpt>
      <trkpt lat="44.4509" lon="2.50055">
        <ele>492</ele>
        <time>2019-05-07T20:30:35Z</time>
      </trkpt>
      <trkpt lat="44.45072" lon="2.50027">
        <ele>487</ele>
        <time>2019-05-07T20:31:35Z</time>
      </trkpt>
      <trkpt lat="44.45068" lon="2.49985">
        <ele>486</ele>
        <time>2019-05-07T20:32:35Z</time>
      </trkpt>
      <trkpt lat="44.45074" lon="2.49864">
        <ele>486</ele>
        <time>2019-05-07T20:33:35Z</time>
      </trkpt>
      <trkpt lat="44.45079" lon="2.49817">
        <ele>486</ele>
        <time>2019-05-07T20:34:35Z</time>
      </trkpt>
      <trkpt lat="44.45097" lon="2.49804">
        <ele>493</ele>
        <time>2019-05-07T20:35:35Z</time>
      </trkpt>
      <trkpt lat="44.45117" lon="2.49797">
        <ele>501</ele>
        <time>2019-05-07T20:36:35Z</time>
      </trkpt>
      <trkpt lat="44.45122" lon="2.49786">
        <ele>503</ele>
        <time>2019-05-07T20:37:35Z</time>
      </trkpt>
      <trkpt lat="44.45112" lon="2.49775">
        <ele>498</ele>
        <time>2019-05-07T20:38:35Z</time>
      </trkpt>
      <trkpt lat="44.45109" lon="2.49753">
        <ele>497</ele>
        <time>2019-05-07T20:39:35Z</time>
      </trkpt>
      <trkpt lat="44.45111" lon="2.49722">
        <ele>500</ele>
        <time>2019-05-07T20:40:35Z</time>
      </trkpt>
      <trkpt lat="44.45109" lon="2.497">
        <ele>500</ele>
        <time>2019-05-07T20:41:35Z</time>
      </trkpt>
      <trkpt lat="44.45099" lon="2.49684">
        <ele>497</ele>
        <time>2019-05-07T20:42:35Z</time>
      </trkpt>
      <trkpt lat="44.45086" lon="2.49663">
        <ele>493</ele>
        <time>2019-05-07T20:43:35Z</time>
      </trkpt>
      <trkpt lat="44.45085" lon="2.49637">
        <ele>495</ele>
        <time>2019-05-07T20:44:35Z</time>
      </trkpt>
      <trkpt lat="44.45074" lon="2.49561">
        <ele>495</ele>
        <time>2019-05-07T20:45:35Z</time>
      </trkpt>
      <trkpt lat="44.4507" lon="2.49507">
        <ele>494</ele>
        <time>2019-05-07T20:46:35Z</time>
      </trkpt>
      <trkpt lat="44.45068" lon="2.49448">
        <ele>498</ele>
        <time>2019-05-07T20:47:35Z</time>
      </trkpt>
      <trkpt lat="44.45053" lon="2.49421">
        <ele>495</ele>
        <time>2019-05-07T20:48:35Z</time>
      </trkpt>
      <trkpt lat="44.4504" lon="2.49404">
        <ele>490</ele>
        <time>2019-05-07T20:49:35Z</time>
      </trkpt>
      <trkpt lat="44.45029" lon="2.49399">
        <ele>486</ele>
        <time>2019-05-07T20:50:35Z</time>
      </trkpt>
      <trkpt lat="44.45019" lon="2.49369">
        <ele>484</ele>
        <time>2019-05-07T20:51:35Z</time>
      </trkpt>
      <trkpt lat="44.45011" lon="2.49348">
        <ele>482</ele>
        <time>2019-05-07T20:52:35Z</time>
      </trkpt>
      <trkpt lat="44.45008" lon="2.49326">
        <ele>482</ele>
        <time>2019-05-07T20:53:35Z</time>
      </trkpt>
      <trkpt lat="44.45002" lon="2.49304">
        <ele>478</ele>
        <time>2019-05-07T20:54:35Z</time>
      </trkpt>
      <trkpt lat="44.44993" lon="2.49313">
        <ele>476</ele>
        <time>2019-05-07T20:55:35Z</time>
      </trkpt>
      <trkpt lat="44.44991" lon="2.49335">
        <ele>476</ele>
        <time>2019-05-07T20:56:35Z</time>
      </trkpt>
      <trkpt lat="44.44991" lon="2.49352">
        <ele>475</ele>
        <time>2019-05-07T20:57:35Z</time>
      </trkpt>
      <trkpt lat="44.44991" lon="2.49374">
        <ele>474</ele>
        <time>2019-05-07T20:58:35Z</time>
      </trkpt>
      <trkpt lat="44.45004" lon="2.49396">
        <ele>476</ele>
        <time>2019-05-07T20:59:35Z</time>
      </trkpt>
      <trkpt lat="44.45019" lon="2.49421">
        <ele>480</ele>
        <time>2019-05-07T21:00:35Z</time>
      </trkpt>
      <trkpt lat="44.45028" lon="2.49438">
        <ele>482</ele>
        <time>2019-05-07T21:01:35Z</time>
      </trkpt>
      <trkpt lat="44.45022" lon="2.49446">
        <ele>479</ele>
        <time>2019-05-07T21:02:35Z</time>
      </trkpt>
      <trkpt lat="44.45011" lon="2.49429">
        <ele>476</ele>
        <time>2019-05-07T21:03:35Z</time>
      </trkpt>
      <trkpt lat="44.44999" lon="2.49416">
        <ele>473</ele>
        <time>2019-05-07T21:04:35Z</time>
      </trkpt>
      <trkpt lat="44.4498" lon="2.49413">
        <ele>469</ele>
        <time>2019-05-07T21:05:35Z</time>
      </trkpt>
      <trkpt lat="44.44962" lon="2.49416">
        <ele>465</ele>
        <time>2019-05-07T21:06:35Z</time>
      </trkpt>
      <trkpt lat="44.44945" lon="2.49422">
        <ele>461</ele>
        <time>2019-05-07T21:07:35Z</time>
      </trkpt>
      <trkpt lat="44.44939" lon="2.4943">
        <ele>458</ele>
        <time>2019-05-07T21:08:35Z</time>
      </trkpt>
      <trkpt lat="44.44965" lon="2.49443">
        <ele>462</ele>
        <time>2019-05-07T21:09:35Z</time>
      </trkpt>
      <trkpt lat="44.44981" lon="2.49452">
        <ele>464</ele>
        <time>2019-05-07T21:10:35Z</time>
      </trkpt>
      <trkpt lat="44.44958" lon="2.49455">
        <ele>458</ele>
        <time>2019-05-07T21:11:35Z</time>
      </trkpt>
      <trkpt lat="44.44926" lon="2.49459">
        <ele>450</ele>
        <time>2019-05-07T21:12:35Z</time>
      </trkpt>
      <trkpt lat="44.44906" lon="2.49451">
        <ele>445</ele>
        <time>2019-05-07T21:13:35Z</time>
      </trkpt>
      <trkpt lat="44.44881" lon="2.49414">
        <ele>442</ele>
        <time>2019-05-07T21:14:35Z</time>
      </trkpt>
      <trkpt lat="44.44873" lon="2.49351">
        <ele>441</ele>
        <time>2019-05-07T21:15:35Z</time>
      </trkpt>
      <trkpt lat="44.44873" lon="2.49322">
        <ele>441</ele>
        <time>2019-05-07T21:16:35Z</time>
      </trkpt>
      <trkpt lat="44.44889" lon="2.49279">
        <ele>444</ele>
        <time>2019-05-07T21:17:35Z</time>
      </trkpt>
      <trkpt lat="44.44884" lon="2.49249">
        <ele>442</ele>
        <time>2019-05-07T21:18:35Z</time>
      </trkpt>
      <trkpt lat="44.44873" lon="2.49181">
        <ele>437</ele>
        <time>2019-05-07T21:19:35Z</time>
      </trkpt>
      <trkpt lat="44.44866" lon="2.49129">
        <ele>427</ele>
        <time>2019-05-07T21:20:35Z</time>
      </trkpt>
      <trkpt lat="44.44874" lon="2.4909">
        <ele>423</ele>
        <time>2019-05-07T21:21:35Z</time>
      </trkpt>
      <trkpt lat="44.449" lon="2.49056">
        <ele>423</ele>
        <time>2019-05-07T21:22:35Z</time>
      </trkpt>
      <trkpt lat="44.44947" lon="2.49021">
        <ele>425</ele>
        <time>2019-05-07T21:23:35Z</time>
      </trkpt>
      <trkpt lat="44.44968" lon="2.48994">
        <ele>424</ele>
        <time>2019-05-07T21:24:35Z</time>
      </trkpt>
      <trkpt lat="44.44979" lon="2.48952">
        <ele>425</ele>
        <time>2019-05-07T21:25:35Z</time>
      </trkpt>
      <trkpt lat="44.44979" lon="2.48927">
        <ele>424</ele>
        <time>2019-05-07T21:26:35Z</time>
      </trkpt>
      <trkpt lat="44.44948" lon="2.48849">
        <ele>417</ele>
        <time>2019-05-07T21:27:35Z</time>
      </trkpt>
      <trkpt lat="44.44936" lon="2.48816">
        <ele>414</ele>
        <time>2019-05-07T21:28:35Z</time>
      </trkpt>
      <trkpt lat="44.44912" lon="2.48734">
        <ele>408</ele>
        <time>2019-05-07T21:29:35Z</time>
      </trkpt>
      <trkpt lat="44.44899" lon="2.48713">
        <ele>405</ele>
        <time>2019-05-07T21:30:35Z</time>
      </trkpt>
      <trkpt lat="44.4489" lon="2.48699">
        <ele>402</ele>
        <time>2019-05-07T21:31:35Z</time>
      </trkpt>
      <trkpt lat="44.44881" lon="2.48711">
        <ele>400</ele>
        <time>2019-05-07T21:32:35Z</time>
      </trkpt>
      <trkpt lat="44.44877" lon="2.48729">
        <ele>399</ele>
        <time>2019-05-07T21:33:35Z</time>
      </trkpt>
      <trkpt lat="44.44882" lon="2.48759">
        <ele>400</ele>
        <time>2019-05-07T21:34:35Z</time>
      </trkpt>
      <trkpt lat="44.449" lon="2.48827">
        <ele>401</ele>
        <time>2019-05-07T21:35:35Z</time>
      </trkpt>
      <trkpt lat="44.449" lon="2.48854">
        <ele>401</ele>
        <time>2019-05-07T21:36:35Z</time>
      </trkpt>
      <trkpt lat="44.44901" lon="2.48892">
        <ele>400</ele>
        <time>2019-05-07T21:37:35Z</time>
      </trkpt>
      <trkpt lat="44.44901" lon="2.48932">
        <ele>401</ele>
        <time>2019-05-07T21:38:35Z</time>
      </trkpt>
      <trkpt lat="44.44901" lon="2.4896">
        <ele>404</ele>
        <time>2019-05-07T21:39:35Z</time>
      </trkpt>
      <trkpt lat="44.44843" lon="2.49004">
        <ele>397</ele>
        <time>2019-05-07T21:40:35Z</time>
      </trkpt>
      <trkpt lat="44.44823" lon="2.49031">
        <ele>397</ele>
        <time>2019-05-07T21:41:35Z</time>
      </trkpt>
      <trkpt lat="44.44814" lon="2.49053">
        <ele>399</ele>
        <time>2019-05-07T21:42:35Z</time>
      </trkpt>
      <trkpt lat="44.44781" lon="2.49096">
        <ele>396</ele>
        <time>2019-05-07T21:43:35Z</time>
      </trkpt>
      <trkpt lat="44.44767" lon="2.49109">
        <ele>394</ele>
        <time>2019-05-07T21:44:35Z</time>
      </trkpt>
      <trkpt lat="44.44749" lon="2.49116">
        <ele>390</ele>
        <time>2019-05-07T21:45:35Z</time>
      </trkpt>
      <trkpt lat="44.44733" lon="2.49135">
        <ele>389</ele>
        <time>2019-05-07T21:46:35Z</time>
      </trkpt>
      <trkpt lat="44.44733" lon="2.49156">
        <ele>392</ele>
        <time>2019-05-07T21:47:35Z</time>
      </trkpt>
      <trkpt lat="44.44723" lon="2.49184">
        <ele>392</ele>
        <time>2019-05-07T21:48:35Z</time>
      </trkpt>
      <trkpt lat="44.44719" lon="2.49212">
        <ele>394</ele>
        <time>2019-05-07T21:49:35Z</time>
      </trkpt>
      <trkpt lat="44.4471" lon="2.49225">
        <ele>393</ele>
        <time>2019-05-07T21:50:35Z</time>
      </trkpt>
      <trkpt lat="44.44716" lon="2.49253">
        <ele>396</ele>
        <time>2019-05-07T21:51:35Z</time>
      </trkpt>
      <trkpt lat="44.4472" lon="2.49285">
        <ele>395</ele>
        <time>2019-05-07T21:52:35Z</time>
      </trkpt>
      <trkpt lat="44.44717" lon="2.49316">
        <ele>392</ele>
        <time>2019-05-07T21:53:35Z</time>
      </trkpt>
      <trkpt lat="44.4471" lon="2.49349">
        <ele>389</ele>
        <time>2019-05-07T21:54:35Z</time>
      </trkpt>
      <trkpt lat="44.44701" lon="2.49369">
        <ele>384</ele>
        <time>2019-05-07T21:55:35Z</time>
      </trkpt>
      <trkpt lat="44.44699" lon="2.49396">
        <ele>381</ele>
        <time>2019-05-07T21:56:35Z</time>
      </trkpt>
      <trkpt lat="44.44718" lon="2.49437">
        <ele>382</ele>
        <time>2019-05-07T21:57:35Z</time>
      </trkpt>
      <trkpt lat="44.44735" lon="2.49469">
        <ele>385</ele>
        <time>2019-05-07T21:58:35Z</time>
      </trkpt>
      <trkpt lat="44.44739" lon="2.49527">
        <ele>382</ele>
        <time>2019-05-07T21:59:35Z</time>
      </trkpt>
      <trkpt lat="44.44741" lon="2.49561">
        <ele>381</ele>
        <time>2019-05-07T22:00:35Z</time>
      </trkpt>
      <trkpt lat="44.44746" lon="2.49596">
        <ele>379</ele>
        <time>2019-05-07T22:01:35Z</time>
      </trkpt>
      <trkpt lat="44.44774" lon="2.49681">
        <ele>375</ele>
        <time>2019-05-07T22:02:35Z</time>
      </trkpt>
      <trkpt lat="44.44773" lon="2.49696">
        <ele>376</ele>
        <time>2019-05-07T22:03:35Z</time>
      </trkpt>
      <trkpt lat="44.44765" lon="2.49695">
        <ele>374</ele>
        <time>2019-05-07T22:04:35Z</time>
      </trkpt>
      <trkpt lat="44.44756" lon="2.49686">
        <ele>372</ele>
        <time>2019-05-07T22:05:35Z</time>
      </trkpt>
      <trkpt lat="44.44748" lon="2.4967">
        <ele>369</ele>
        <time>2019-05-07T22:06:35Z</time>
      </trkpt>
      <trkpt lat="44.44688" lon="2.49643">
        <ele>372</ele>
        <time>2019-05-07T22:07:35Z</time>
      </trkpt>
      <trkpt lat="44.44662" lon="2.49601">
        <ele>369</ele>
        <time>2019-05-07T22:08:35Z</time>
      </trkpt>
      <trkpt lat="44.44659" lon="2.4958">
        <ele>367</ele>
        <time>2019-05-07T22:09:35Z</time>
      </trkpt>
      <trkpt lat="44.44637" lon="2.4956">
        <ele>369</ele>
        <time>2019-05-07T22:10:35Z</time>
      </trkpt>
      <trkpt lat="44.44625" lon="2.49548">
        <ele>368</ele>
        <time>2019-05-07T22:11:35Z</time>
      </trkpt>
      <trkpt lat="44.44601" lon="2.49543">
        <ele>368</ele>
        <time>2019-05-07T22:12:35Z</time>
      </trkpt>
      <trkpt lat="44.44579" lon="2.49535">
        <ele>367</ele>
        <time>2019-05-07T22:13:35Z</time>
      </trkpt>
      <trkpt lat="44.44551" lon="2.49529">
        <ele>365</ele>
        <time>2019-05-07T22:14:35Z</time>
      </trkpt>
      <trkpt lat="44.44536" lon="2.49522">
        <ele>362</ele>
        <time>2019-05-07T22:15:35Z</time>
      </trkpt>
      <trkpt lat="44.44524" lon="2.49522">
        <ele>362</ele>
        <time>2019-05-07T22:16:35Z</time>
      </trkpt>
      <trkpt lat="44.44516" lon="2.49512">
        <ele>359</ele>
        <time>2019-05-07T22:17:35Z</time>
      </trkpt>
      <trkpt lat="44.44502" lon="2.4951">
        <ele>358</ele>
        <time>2019-05-07T22:18:35Z</time>
      </trkpt>
      <trkpt lat="44.44494" lon="2.49521">
        <ele>360</ele>
        <time>2019-05-07T22:19:35Z</time>
      </trkpt>
      <trkpt lat="44.44485" lon="2.49531">
        <ele>360</ele>
        <time>2019-05-07T22:20:35Z</time>
      </trkpt>
      <trkpt lat="44.44485" lon="2.49509">
        <ele>354</ele>
        <time>2019-05-07T22:21:35Z</time>
      </trkpt>
      <trkpt lat="44.44485" lon="2.49491">
        <ele>349</ele>
        <time>2019-05-07T22:22:35Z</time>
      </trkpt>
      <trkpt lat="44.44485" lon="2.49474">
        <ele>345</ele>
        <time>2019-05-07T22:23:35Z</time>
      </trkpt>
      <trkpt lat="44.44474" lon="2.49478">
        <ele>344</ele>
        <time>2019-05-07T22:24:35Z</time>
      </trkpt>
      <trkpt lat="44.44459" lon="2.49495">
        <ele>344</ele>
        <time>2019-05-07T22:25:35Z</time>
      </trkpt>
      <trkpt lat="44.44444" lon="2.49502">
        <ele>341</ele>
        <time>2019-05-07T22:26:35Z</time>
      </trkpt>
      <trkpt lat="44.44436" lon="2.49505">
        <ele>340</ele>
        <time>2019-05-07T22:27:35Z</time>
      </trkpt>
      <trkpt lat="44.44426" lon="2.49509">
        <ele>338</ele>
        <time>2019-05-07T22:28:35Z</time>
      </trkpt>
      <trkpt lat="44.44409" lon="2.49522">
        <ele>337</ele>
        <time>2019-05-07T22:29:35Z</time>
      </trkpt>
      <trkpt lat="44.44398" lon="2.49523">
        <ele>338</ele>
        <time>2019-05-07T22:30:35Z</time>
      </trkpt>
      <trkpt lat="44.44384" lon="2.49516">
        <ele>338</ele>
        <time>2019-05-07T22:31:35Z</time>
      </trkpt>
      <trkpt lat="44.44371" lon="2.49513">
        <ele>338</ele>
        <time>2019-05-07T22:32:35Z</time>
      </trkpt>
      <trkpt lat="44.44361" lon="2.49504">
        <ele>339</ele>
        <time>2019-05-07T22:33:35Z</time>
      </trkpt>
      <trkpt lat="44.44353" lon="2.49504">
        <ele>339</ele>
        <time>2019-05-07T22:34:35Z</time>
      </trkpt>
      <trkpt lat="44.4435" lon="2.49513">
        <ele>339</ele>
        <time>2019-05-07T22:35:35Z</time>
      </trkpt>
      <trkpt lat="44.44337" lon="2.49536">
        <ele>338</ele>
        <time>2019-05-07T22:36:35Z</time>
      </trkpt>
      <trkpt lat="44.44327" lon="2.49557">
        <ele>340</ele>
        <time>2019-05-07T22:37:35Z</time>
      </trkpt>
      <trkpt lat="44.44317" lon="2.49566">
        <ele>343</ele>
        <time>2019-05-07T22:38:35Z</time>
      </trkpt>
      <trkpt lat="44.44308" lon="2.49581">
        <ele>346</ele>
        <time>2019-05-07T22:39:35Z</time>
      </trkpt>
      <trkpt lat="44.44294" lon="2.49596">
        <ele>351</ele>
        <time>2019-05-07T22:40:35Z</time>
      </trkpt>
      <trkpt lat="44.44281" lon="2.49621">
        <ele>353</ele>
        <time>2019-05-07T22:41:35Z</time>
      </trkpt>
      <trkpt lat="44.44261" lon="2.49665">
        <ele>353</ele>
        <time>2019-05-07T22:42:35Z</time>
      </trkpt>
      <trkpt lat="44.44238" lon="2.49713">
        <ele>352</ele>
        <time>2019-05-07T22:43:35Z</time>
      </trkpt>
      <trkpt lat="44.4422" lon="2.49733">
        <ele>356</ele>
        <time>2019-05-07T22:44:35Z</time>
      </trkpt>
      <trkpt lat="44.44199" lon="2.49753">
        <ele>362</ele>
        <time>2019-05-07T22:45:35Z</time>
      </trkpt>
      <trkpt lat="44.44186" lon="2.49785">
        <ele>361</ele>
        <time>2019-05-07T22:46:35Z</time>
      </trkpt>
      <trkpt lat="44.44174" lon="2.49796">
        <ele>362</ele>
        <time>2019-05-07T22:47:35Z</time>
      </trkpt>
      <trkpt lat="44.44165" lon="2.49807">
        <ele>362</ele>
        <time>2019-05-07T22:48:35Z</time>
      </trkpt>
      <trkpt lat="44.4415" lon="2.49811">
        <ele>363</ele>
        <time>2019-05-07T22:49:35Z</time>
      </trkpt>
      <trkpt lat="44.44128" lon="2.49812">
        <ele>367</ele>
        <time>2019-05-07T22:50:35Z</time>
      </trkpt>
      <trkpt lat="44.44114" lon="2.49811">
        <ele>369</ele>
        <time>2019-05-07T22:51:35Z</time>
      </trkpt>
      <trkpt lat="44.44092" lon="2.49786">
        <ele>377</ele>
        <time>2019-05-07T22:52:35Z</time>
      </trkpt>
      <trkpt lat="44.44079" lon="2.49775">
        <ele>380</ele>
        <time>2019-05-07T22:53:35Z</time>
      </trkpt>
      <trkpt lat="44.44035" lon="2.49749">
        <ele>388</ele>
        <time>2019-05-07T22:54:35Z</time>
      </trkpt>
      <trkpt lat="44.44009" lon="2.49764">
        <ele>387</ele>
        <time>2019-05-07T22:55:35Z</time>
      </trkpt>
      <trkpt lat="44.44" lon="2.49762">
        <ele>388</ele>
        <time>2019-05-07T22:56:35Z</time>
      </trkpt>
      <trkpt lat="44.4399" lon="2.49755">
        <ele>390</ele>
        <time>2019-05-07T22:57:35Z</time>
      </trkpt>
      <trkpt lat="44.43986" lon="2.49741">
        <ele>393</ele>
        <time>2019-05-07T22:58:35Z</time>
      </trkpt>
      <trkpt lat="44.43974" lon="2.49733">
        <ele>395</ele>
        <time>2019-05-07T22:59:35Z</time>
      </trkpt>
      <trkpt lat="44.43956" lon="2.49726">
        <ele>396</ele>
        <time>2019-05-07T23:00:35Z</time>
      </trkpt>
      <trkpt lat="44.43947" lon="2.49713">
        <ele>399</ele>
        <time>2019-05-07T23:01:35Z</time>
      </trkpt>
      <trkpt lat="44.4393" lon="2.49698">
        <ele>403</ele>
        <time>2019-05-07T23:02:35Z</time>
      </trkpt>
      <trkpt lat="44.4391" lon="2.49686">
        <ele>406</ele>
        <time>2019-05-07T23:03:35Z</time>
      </trkpt>
      <trkpt lat="44.43889" lon="2.49684">
        <ele>405</ele>
        <time>2019-05-07T23:04:35Z</time>
      </trkpt>
      <trkpt lat="44.43883" lon="2.4967">
        <ele>408</ele>
        <time>2019-05-07T23:05:35Z</time>
      </trkpt>
      <trkpt lat="44.43874" lon="2.49654">
        <ele>411</ele>
        <time>2019-05-07T23:06:35Z</time>
      </trkpt>
      <trkpt lat="44.43859" lon="2.49632">
        <ele>416</ele>
        <time>2019-05-07T23:07:35Z</time>
      </trkpt>
      <trkpt lat="44.43832" lon="2.49626">
        <ele>417</ele>
        <time>2019-05-07T23:08:35Z</time>
      </trkpt>
      <trkpt lat="44.4379" lon="2.49612">
        <ele>428</ele>
        <time>2019-05-07T23:09:35Z</time>
      </trkpt>
      <trkpt lat="44.43774" lon="2.49616">
        <ele>429</ele>
        <time>2019-05-07T23:10:35Z</time>
      </trkpt>
      <trkpt lat="44.43758" lon="2.49637">
        <ele>427</ele>
        <time>2019-05-07T23:11:35Z</time>
      </trkpt>
      <trkpt lat="44.43743" lon="2.49643">
        <ele>430</ele>
        <time>2019-05-07T23:12:35Z</time>
      </trkpt>
      <trkpt lat="44.43733" lon="2.49668">
        <ele>429</ele>
        <time>2019-05-07T23:13:35Z</time>
      </trkpt>
      <trkpt lat="44.43728" lon="2.49707">
        <ele>427</ele>
        <time>2019-05-07T23:14:35Z</time>
      </trkpt>
      <trkpt lat="44.43725" lon="2.49725">
        <ele>427</ele>
        <time>2019-05-07T23:15:35Z</time>
      </trkpt>
      <trkpt lat="44.43722" lon="2.49749">
        <ele>426</ele>
        <time>2019-05-07T23:16:35Z</time>
      </trkpt>
      <trkpt lat="44.43715" lon="2.49801">
        <ele>425</ele>
        <time>2019-05-07T23:17:35Z</time>
      </trkpt>
      <trkpt lat="44.43698" lon="2.49856">
        <ele>425</ele>
        <time>2019-05-07T23:18:35Z</time>
      </trkpt>
      <trkpt lat="44.43691" lon="2.49886">
        <ele>424</ele>
        <time>2019-05-07T23:19:35Z</time>
      </trkpt>
      <trkpt lat="44.43663" lon="2.49924">
        <ele>427</ele>
        <time>2019-05-07T23:20:35Z</time>
      </trkpt>
      <trkpt lat="44.43646" lon="2.49929">
        <ele>432</ele>
        <time>2019-05-07T23:21:35Z</time>
      </trkpt>
      <trkpt lat="44.43618" lon="2.49945">
        <ele>440</ele>
        <time>2019-05-07T23:22:35Z</time>
      </trkpt>
      <trkpt lat="44.43613" lon="2.49963">
        <ele>439</ele>
        <time>2019-05-07T23:23:35Z</time>
      </trkpt>
      <trkpt lat="44.43597" lon="2.50005">
        <ele>437</ele>
        <time>2019-05-07T23:24:35Z</time>
      </trkpt>
      <trkpt lat="44.43573" lon="2.50034">
        <ele>436</ele>
        <time>2019-05-07T23:25:35Z</time>
      </trkpt>
      <trkpt lat="44.43534" lon="2.50062">
        <ele>437</ele>
        <time>2019-05-07T23:26:35Z</time>
      </trkpt>
      <trkpt lat="44.43516" lon="2.50077">
        <ele>437</ele>
        <time>2019-05-07T23:27:35Z</time>
      </trkpt>
      <trkpt lat="44.43486" lon="2.50124">
        <ele>437</ele>
        <time>2019-05-07T23:28:35Z</time>
      </trkpt>
      <trkpt lat="44.4348" lon="2.50156">
        <ele>433</ele>
        <time>2019-05-07T23:29:35Z</time>
      </trkpt>
      <trkpt lat="44.43466" lon="2.50185">
        <ele>434</ele>
        <time>2019-05-07T23:30:35Z</time>
      </trkpt>
      <trkpt lat="44.43455" lon="2.50206">
        <ele>434</ele>
        <time>2019-05-07T23:31:35Z</time>
      </trkpt>
      <trkpt lat="44.43436" lon="2.50233">
        <ele>436</ele>
        <time>2019-05-07T23:32:35Z</time>
      </trkpt>
      <trkpt lat="44.43421" lon="2.50259">
        <ele>437</ele>
        <time>2019-05-07T23:33:35Z</time>
      </trkpt>
      <trkpt lat="44.43412" lon="2.50272">
        <ele>437</ele>
        <time>2019-05-07T23:34:35Z</time>
      </trkpt>
      <trkpt lat="44.43411" lon="2.50305">
        <ele>434</ele>
        <time>2019-05-07T23:35:35Z</time>
      </trkpt>
      <trkpt lat="44.43411" lon="2.50334">
        <ele>430</ele>
        <time>2019-05-07T23:36:35Z</time>
      </trkpt>
      <trkpt lat="44.43399" lon="2.50353">
        <ele>431</ele>
        <time>2019-05-07T23:37:35Z</time>
      </trkpt>
      <trkpt lat="44.43384" lon="2.5039">
        <ele>431</ele>
        <time>2019-05-07T23:38:35Z</time>
      </trkpt>
      <trkpt lat="44.43383" lon="2.50427">
        <ele>428</ele>
        <time>2019-05-07T23:39:35Z</time>
      </trkpt>
      <trkpt lat="44.43383" lon="2.50464">
        <ele>426</ele>
        <time>2019-05-07T23:40:35Z</time>
      </trkpt>
      <trkpt lat="44.43369" lon="2.50515">
        <ele>427</ele>
        <time>2019-05-07T23:41:35Z</time>
      </trkpt>
      <trkpt lat="44.43345" lon="2.50573">
        <ele>432</ele>
        <time>2019-05-07T23:42:35Z</time>
      </trkpt>
      <trkpt lat="44.43342" lon="2.50594">
        <ele>432</ele>
        <time>2019-05-07T23:43:35Z</time>
      </trkpt>
      <trkpt lat="44.43366" lon="2.50623">
        <ele>429</ele>
        <time>2019-05-07T23:44:35Z</time>
      </trkpt>
      <trkpt lat="44.43357" lon="2.50684">
        <ele>430</ele>
        <time>2019-05-07T23:45:35Z</time>
      </trkpt>
      <trkpt lat="44.43349" lon="2.50726">
        <ele>429</ele>
        <time>2019-05-07T23:46:35Z</time>
      </trkpt>
      <trkpt lat="44.43351" lon="2.50755">
        <ele>428</ele>
        <time>2019-05-07T23:47:35Z</time>
      </trkpt>
      <trkpt lat="44.43358" lon="2.50793">
        <ele>426</ele>
        <time>2019-05-07T23:48:35Z</time>
      </trkpt>
      <trkpt lat="44.43348" lon="2.50819">
        <ele>426</ele>
        <time>2019-05-07T23:49:35Z</time>
      </trkpt>
      <trkpt lat="44.43337" lon="2.5083">
        <ele>427</ele>
        <time>2019-05-07T23:50:35Z</time>
      </trkpt>
      <trkpt lat="44.4333" lon="2.50876">
        <ele>428</ele>
        <time>2019-05-07T23:51:35Z</time>
      </trkpt>
      <trkpt lat="44.43308" lon="2.50909">
        <ele>431</ele>
        <time>2019-05-07T23:52:35Z</time>
      </trkpt>
      <trkpt lat="44.433" lon="2.50933">
        <ele>431</ele>
        <time>2019-05-07T23:53:35Z</time>
      </trkpt>
      <trkpt lat="44.43302" lon="2.50952">
        <ele>429</ele>
        <time>2019-05-07T23:54:35Z</time>
      </trkpt>
      <trkpt lat="44.43296" lon="2.50978">
        <ele>428</ele>
        <time>2019-05-07T23:55:35Z</time>
      </trkpt>
      <trkpt lat="44.43324" lon="2.51037">
        <ele>418</ele>
        <time>2019-05-07T23:56:35Z</time>
      </trkpt>
      <trkpt lat="44.43327" lon="2.5106">
        <ele>414</ele>
        <time>2019-05-07T23:57:35Z</time>
      </trkpt>
      <trkpt lat="44.4332" lon="2.51085">
        <ele>412</ele>
        <time>2019-05-07T23:58:35Z</time>
      </trkpt>
      <trkpt lat="44.43308" lon="2.51098">
        <ele>413</ele>
        <time>2019-05-07T23:59:35Z</time>
      </trkpt>
      <trkpt lat="44.43312" lon="2.51128">
        <ele>410</ele>
        <time>2019-05-08T00:00:35Z</time>
      </trkpt>
      <trkpt lat="44.43315" lon="2.51163">
        <ele>406</ele>
        <time>2019-05-08T00:01:35Z</time>
      </trkpt>
      <trkpt lat="44.43319" lon="2.51188">
        <ele>403</ele>
        <time>2019-05-08T00:02:35Z</time>
      </trkpt>
      <trkpt lat="44.4332" lon="2.51218">
        <ele>400</ele>
        <time>2019-05-08T00:03:35Z</time>
      </trkpt>
      <trkpt lat="44.43342" lon="2.51244">
        <ele>395</ele>
        <time>2019-05-08T00:04:35Z</time>
      </trkpt>
      <trkpt lat="44.43347" lon="2.51258">
        <ele>394</ele>
        <time>2019-05-08T00:05:35Z</time>
      </trkpt>
      <trkpt lat="44.43345" lon="2.51281">
        <ele>394</ele>
        <time>2019-05-08T00:06:35Z</time>
      </trkpt>
      <trkpt lat="44.43356" lon="2.51297">
        <ele>393</ele>
        <time>2019-05-08T00:07:35Z</time>
      </trkpt>
      <trkpt lat="44.43381" lon="2.51284">
        <ele>393</ele>
        <time>2019-05-08T00:08:35Z</time>
      </trkpt>
      <trkpt lat="44.43394" lon="2.5127">
        <ele>393</ele>
        <time>2019-05-08T00:09:35Z</time>
      </trkpt>
      <trkpt lat="44.43415" lon="2.51274">
        <ele>392</ele>
        <time>2019-05-08T00:10:35Z</time>
      </trkpt>
      <trkpt lat="44.43419" lon="2.51292">
        <ele>393</ele>
        <time>2019-05-08T00:11:35Z</time>
      </trkpt>
      <trkpt lat="44.43444" lon="2.51303">
        <ele>396</ele>
        <time>2019-05-08T00:12:35Z</time>
      </trkpt>
      <trkpt lat="44.43485" lon="2.51299">
        <ele>399</ele>
        <time>2019-05-08T00:13:35Z</time>
      </trkpt>
      <trkpt lat="44.43499" lon="2.51315">
        <ele>401</ele>
        <time>2019-05-08T00:14:35Z</time>
      </trkpt>
      <trkpt lat="44.4351" lon="2.51338">
        <ele>403</ele>
        <time>2019-05-08T00:15:35Z</time>
      </trkpt>
      <trkpt lat="44.43502" lon="2.51377">
        <ele>409</ele>
        <time>2019-05-08T00:16:35Z</time>
      </trkpt>
      <trkpt lat="44.43495" lon="2.51402">
        <ele>413</ele>
        <time>2019-05-08T00:17:35Z</time>
      </trkpt>
      <trkpt lat="44.43507" lon="2.51432">
        <ele>420</ele>
        <time>2019-05-08T00:18:35Z</time>
      </trkpt>
      <trkpt lat="44.43526" lon="2.51469">
        <ele>427</ele>
        <time>2019-05-08T00:19:35Z</time>
      </trkpt>
      <trkpt lat="44.43553" lon="2.51483">
        <ele>426</ele>
        <time>2019-05-08T00:20:35Z</time>
      </trkpt>
      <trkpt lat="44.43578" lon="2.51474">
        <ele>422</ele>
        <time>2019-05-08T00:21:35Z</time>
      </trkpt>
      <trkpt lat="44.43605" lon="2.51457">
        <ele>421</ele>
        <time>2019-05-08T00:22:35Z</time>
      </trkpt>
      <trkpt lat="44.43632" lon="2.51423">
        <ele>416</ele>
        <time>2019-05-08T00:23:35Z</time>
      </trkpt>
      <trkpt lat="44.43629" lon="2.51395">
        <ele>412</ele>
        <time>2019-05-08T00:24:35Z</time>
      </trkpt>
    </trkseg>
  </trk>
</gpx>